createdAt,value
2023-05-19T00:00:24.814Z,99666.02
2023-05-19T00:02:01.974Z,99668.45
2023-05-19T00:03:31.758Z,99671.98
2023-05-19T00:05:08.261Z,99669.36
2023-05-19T00:06:49.203Z,99670.38
2023-05-19T00:08:22.968Z,99669.77
2023-05-19T00:09:58.635Z,99665.83
2023-05-19T00:11:39.732Z,99667.70
2023-05-19T00:13:12.933Z,99663.63
2023-05-19T00:14:37.162Z,99649.59
2023-05-19T00:16:30.740Z,99661.48
2023-05-19T00:18:00.231Z,99659.45
2023-05-19T00:19:26.747Z,99657.73
2023-05-19T00:21:15.215Z,99637.91
2023-05-19T00:22:51.295Z,99653.73
2023-05-19T00:24:27.006Z,99651.56
2023-05-19T00:26:00.784Z,99650.05
2023-05-19T00:27:34.579Z,99644.69
2023-05-19T00:29:19.963Z,99648.66
2023-05-19T00:30:41.828Z,99648.80
2023-05-19T00:32:16.656Z,99650.35
2023-05-19T00:33:58.160Z,99647.02
2023-05-19T00:35:35.002Z,99649.21
2023-05-19T00:37:10.768Z,99649.09
2023-05-19T00:38:44.205Z,99646.27
2023-05-19T00:40:06.566Z,99645.81
2023-05-19T00:41:30.466Z,99650.38
2023-05-19T00:43:21.289Z,99649.61
2023-05-19T00:44:59.361Z,99650.95
2023-05-19T00:46:23.669Z,99648.94
2023-05-19T00:47:45.554Z,99648.38
2023-05-19T00:49:18.887Z,99647.80
2023-05-19T00:51:03.996Z,99650.25
2023-05-19T00:52:40.101Z,99650.29
2023-05-19T00:54:20.953Z,99646.83
2023-05-19T00:55:56.548Z,99647.17
2023-05-19T00:57:32.564Z,99642.95
2023-05-19T00:59:19.884Z,99644.88
2023-05-19T01:01:13.751Z,99643.36
2023-05-19T01:02:47.639Z,99642.72
2023-05-19T01:04:21.813Z,99647.60
2023-05-19T01:06:06.762Z,99633.74
2023-05-19T01:08:00.351Z,99647.50
2023-05-19T01:09:41.059Z,99651.90
2023-05-19T01:11:31.391Z,99649.89
2023-05-19T01:12:53.227Z,99651.70
2023-05-19T01:14:27.023Z,99648.24
2023-05-19T01:16:13.167Z,99649.32
2023-05-19T01:17:37.410Z,99657.70
2023-05-19T01:19:19.484Z,99655.08
2023-05-19T01:20:58.122Z,99654.98
2023-05-19T01:22:43.806Z,99654.16
2023-05-19T01:24:27.273Z,99658.77
2023-05-19T01:25:58.271Z,99656.23
2023-05-19T01:27:43.579Z,99659.13
2023-05-19T01:29:18.755Z,99654.77
2023-05-19T01:30:52.775Z,99658.91
2023-05-19T01:32:26.216Z,99657.23
2023-05-19T01:34:04.595Z,99659.61
2023-05-19T01:35:38.015Z,99663.36
2023-05-19T01:37:26.853Z,99662.60
2023-05-19T01:39:11.677Z,99664.56
2023-05-19T01:40:57.001Z,99653.99
2023-05-19T01:42:41.858Z,99664.09
2023-05-19T01:44:23.888Z,99663.27
2023-05-19T01:45:47.918Z,99668.06
2023-05-19T01:47:32.880Z,99663.61
2023-05-19T01:49:06.723Z,99664.55
2023-05-19T01:50:42.481Z,99663.69
2023-05-19T01:52:23.082Z,99666.45
2023-05-19T01:53:52.376Z,99664.14
2023-05-19T01:55:28.167Z,99665.98
2023-05-19T01:57:01.742Z,99666.14
2023-05-19T01:58:37.502Z,99661.83
2023-05-19T02:00:23.335Z,99664.65
2023-05-19T02:01:47.736Z,99662.23
2023-05-19T02:03:22.069Z,99660.98
2023-05-19T02:05:07.179Z,99664.75
2023-05-19T02:06:40.839Z,99659.06
2023-05-19T02:08:19.589Z,99657.26
2023-05-19T02:10:04.757Z,99654.70
2023-05-19T02:11:33.917Z,99652.21
2023-05-19T02:13:18.750Z,99653.09
2023-05-19T02:14:42.805Z,99653.77
2023-05-19T02:16:18.420Z,99649.27
2023-05-19T02:18:03.614Z,99650.42
2023-05-19T02:19:40.173Z,99650.09
2023-05-19T02:21:13.273Z,99650.39
2023-05-19T02:22:47.025Z,99643.02
2023-05-19T02:24:32.015Z,99641.23
2023-05-19T02:26:17.497Z,99642.30
2023-05-19T02:27:49.001Z,99640.76
2023-05-19T02:29:41.595Z,99630.14
2023-05-19T02:31:10.820Z,99637.70
2023-05-19T02:32:58.375Z,99637.16
2023-05-19T02:34:33.984Z,99632.76
2023-05-19T02:36:10.189Z,99635.25
2023-05-19T02:37:44.163Z,99636.48
2023-05-19T02:39:15.415Z,99635.21
2023-05-19T02:40:51.377Z,99632.73
2023-05-19T02:42:17.734Z,99631.61
2023-05-19T02:44:00.335Z,99634.01
2023-05-19T02:45:33.820Z,99632.62
2023-05-19T02:47:14.809Z,99627.23
2023-05-19T02:48:55.646Z,99626.16
2023-05-19T02:50:24.221Z,99629.19
2023-05-19T02:52:02.749Z,99625.13
2023-05-19T02:53:47.752Z,99625.06
2023-05-19T02:55:21.281Z,99624.89
2023-05-19T02:56:54.666Z,99625.20
2023-05-19T02:58:27.668Z,99622.27
2023-05-19T03:00:08.809Z,99624.86
2023-05-19T03:01:49.599Z,99619.92
2023-05-19T03:03:16.159Z,99619.10
2023-05-19T03:04:57.872Z,99624.39
2023-05-19T03:06:38.612Z,99621.12
2023-05-19T03:08:12.104Z,99608.62
2023-05-19T03:09:45.637Z,99620.92
2023-05-19T03:11:19.153Z,99620.73
2023-05-19T03:12:52.923Z,99624.14
2023-05-19T03:14:17.296Z,99623.61
2023-05-19T03:15:53.089Z,99625.92
2023-05-19T03:17:38.294Z,99624.42
2023-05-19T03:19:07.365Z,99625.33
2023-05-19T03:20:54.217Z,99614.14
2023-05-19T03:22:21.206Z,99628.83
2023-05-19T03:24:07.140Z,99625.26
2023-05-19T03:25:43.210Z,99624.73
2023-05-19T03:27:07.192Z,99625.30
2023-05-19T03:28:48.037Z,99628.18
2023-05-19T03:30:09.862Z,99628.15
2023-05-19T03:31:42.829Z,99628.55
2023-05-19T03:33:17.098Z,99629.19
2023-05-19T03:34:41.098Z,99627.17
2023-05-19T03:36:14.084Z,99630.40
2023-05-19T03:37:49.789Z,99632.15
2023-05-19T03:39:23.248Z,99629.73
2023-05-19T03:41:05.137Z,99630.30
2023-05-19T03:42:41.386Z,99634.73
2023-05-19T03:44:05.130Z,99632.19
2023-05-19T03:45:50.407Z,99630.98
2023-05-19T03:47:49.934Z,99632.05
2023-05-19T03:49:54.004Z,99628.08
2023-05-19T03:51:48.285Z,99631.00
2023-05-19T03:53:26.509Z,99629.27
2023-05-19T03:55:07.599Z,99631.44
2023-05-19T03:56:41.030Z,99632.29
2023-05-19T03:58:17.072Z,99634.54
2023-05-19T03:59:53.188Z,99632.23
2023-05-19T04:01:37.977Z,99632.52
2023-05-19T04:03:23.420Z,99632.58
2023-05-19T04:04:57.125Z,99633.06
2023-05-19T04:06:43.929Z,99636.61
2023-05-19T04:08:05.587Z,99632.28
2023-05-19T04:09:39.172Z,99634.80
2023-05-19T04:11:15.222Z,99631.65
2023-05-19T04:12:48.929Z,99630.40
2023-05-19T04:14:25.264Z,99633.46
2023-05-19T04:15:58.716Z,99634.66
2023-05-19T04:17:34.390Z,99637.35
2023-05-19T04:19:10.541Z,99638.04
2023-05-19T04:20:36.796Z,99635.91
2023-05-19T04:22:03.000Z,99634.88
2023-05-19T04:23:48.197Z,99635.98
2023-05-19T04:25:23.825Z,99636.26
2023-05-19T04:27:01.218Z,99640.28
2023-05-19T04:28:27.697Z,99643.20
2023-05-19T04:30:01.011Z,99643.41
2023-05-19T04:31:33.444Z,99642.17
2023-05-19T04:32:55.282Z,99639.64
2023-05-19T04:34:40.616Z,99638.41
2023-05-19T04:36:23.476Z,99641.88
2023-05-19T04:38:07.367Z,99642.38
2023-05-19T04:39:42.967Z,99638.44
2023-05-19T04:41:13.918Z,99642.66
2023-05-19T04:42:53.028Z,99646.44
2023-05-19T04:44:38.360Z,99642.98
2023-05-19T04:46:00.228Z,99639.98
2023-05-19T04:47:21.876Z,99644.69
2023-05-19T04:48:48.234Z,99641.09
2023-05-19T04:50:28.722Z,99639.20
2023-05-19T04:51:55.552Z,99639.27
2023-05-19T04:53:41.413Z,99638.22
2023-05-19T04:55:27.793Z,99639.70
2023-05-19T04:56:52.301Z,99638.30
2023-05-19T04:58:26.141Z,99626.80
2023-05-19T05:00:00.035Z,99636.38
2023-05-19T05:01:34.688Z,99633.55
2023-05-19T05:03:01.311Z,99635.39
2023-05-19T05:04:47.869Z,99628.73
2023-05-19T05:06:29.403Z,99640.30
2023-05-19T05:08:18.190Z,99638.92
2023-05-19T05:09:59.327Z,99639.06
2023-05-19T05:11:32.881Z,99638.23
2023-05-19T05:12:57.849Z,99637.83
2023-05-19T05:14:31.537Z,99635.88
2023-05-19T05:16:19.346Z,99621.46
2023-05-19T05:18:13.103Z,99634.20
2023-05-19T05:19:54.987Z,99631.27
2023-05-19T05:21:31.105Z,99631.41
2023-05-19T05:23:04.689Z,99626.08
2023-05-19T05:24:38.861Z,99621.19
2023-05-19T05:26:24.685Z,99621.59
2023-05-19T05:28:08.657Z,99626.29
2023-05-19T05:29:54.766Z,99630.19
2023-05-19T05:31:19.469Z,99630.34
2023-05-19T05:32:53.093Z,99621.92
2023-05-19T05:34:29.520Z,99630.17
2023-05-19T05:36:10.609Z,99624.92
2023-05-19T05:37:43.795Z,99620.11
2023-05-19T05:39:28.733Z,99624.34
2023-05-19T05:41:02.548Z,99611.24
2023-05-19T05:42:28.876Z,99623.11
2023-05-19T05:44:05.538Z,99622.36
2023-05-19T05:45:39.337Z,99626.65
2023-05-19T05:47:15.289Z,99631.75
2023-05-19T05:48:41.905Z,99634.31
2023-05-19T05:50:17.584Z,99632.48
2023-05-19T05:51:42.988Z,99618.66
2023-05-19T05:53:12.623Z,99631.20
2023-05-19T05:54:38.412Z,99631.54
2023-05-19T05:56:23.830Z,99626.92
2023-05-19T05:58:20.322Z,99629.01
2023-05-19T06:00:08.308Z,99627.39
2023-05-19T06:01:46.292Z,99624.63
2023-05-19T06:03:22.454Z,99631.44
2023-05-19T06:04:56.992Z,99630.29
2023-05-19T06:06:37.458Z,99629.24
2023-05-19T06:08:01.705Z,99631.95
2023-05-19T06:09:32.735Z,99628.90
2023-05-19T06:11:07.940Z,99629.08
2023-05-19T06:12:44.333Z,99626.39
2023-05-19T06:14:24.847Z,99627.36
2023-05-19T06:16:16.762Z,99627.50
2023-05-19T06:18:12.946Z,99627.45
2023-05-19T06:19:47.155Z,99629.20
2023-05-19T06:21:32.241Z,99636.64
2023-05-19T06:23:20.340Z,99632.02
2023-05-19T06:24:46.636Z,99639.85
2023-05-19T06:26:27.239Z,99638.69
2023-05-19T06:28:00.900Z,99643.84
2023-05-19T06:29:34.479Z,99644.06
2023-05-19T06:31:01.071Z,99643.04
2023-05-19T06:32:46.406Z,99646.42
2023-05-19T06:34:26.775Z,99645.70
2023-05-19T06:36:12.405Z,99650.81
2023-05-19T06:37:58.450Z,99646.37
2023-05-19T06:39:31.400Z,99646.25
2023-05-19T06:41:06.890Z,99646.54
2023-05-19T06:42:39.386Z,99651.64
2023-05-19T06:44:36.994Z,99649.65
2023-05-19T06:46:17.884Z,99647.70
2023-05-19T06:47:56.574Z,99642.70
2023-05-19T06:49:30.284Z,99640.80
2023-05-19T06:51:15.419Z,99641.55
2023-05-19T06:53:00.843Z,99639.52
2023-05-19T06:54:33.804Z,99635.73
2023-05-19T06:56:19.648Z,99634.89
2023-05-19T06:57:49.401Z,99626.94
2023-05-19T06:59:25.705Z,99622.34
2023-05-19T07:01:02.412Z,99623.86
2023-05-19T07:02:51.255Z,99620.85
2023-05-19T07:04:38.589Z,99624.94
2023-05-19T07:06:23.206Z,99628.00
2023-05-19T07:08:09.700Z,99628.41
2023-05-19T07:09:41.046Z,99631.28
2023-05-19T07:11:02.951Z,99633.02
2023-05-19T07:12:32.546Z,99628.64
2023-05-19T07:14:10.790Z,99628.38
2023-05-19T07:15:55.764Z,99629.08
2023-05-19T07:17:31.813Z,99635.11
2023-05-19T07:19:03.461Z,99634.69
2023-05-19T07:20:39.574Z,99633.34
2023-05-19T07:22:24.669Z,99637.86
2023-05-19T07:24:06.306Z,99638.02
2023-05-19T07:25:42.700Z,99638.21
2023-05-19T07:27:16.442Z,99639.10
2023-05-19T07:28:41.735Z,99639.11
2023-05-19T07:30:15.241Z,99633.17
2023-05-19T07:32:00.437Z,99633.97
2023-05-19T07:33:36.316Z,99631.06
2023-05-19T07:34:58.621Z,99633.20
2023-05-19T07:36:34.149Z,99630.81
2023-05-19T07:37:58.411Z,99632.01
2023-05-19T07:39:32.333Z,99634.30
2023-05-19T07:41:17.047Z,99634.43
2023-05-19T07:42:45.947Z,99633.91
2023-05-19T07:44:17.638Z,99635.63
2023-05-19T07:46:03.070Z,99635.04
2023-05-19T07:47:43.630Z,99637.64
2023-05-19T07:49:17.457Z,99639.75
2023-05-19T07:50:46.780Z,99633.24
2023-05-19T07:52:10.876Z,99650.22
2023-05-19T07:53:55.936Z,99653.27
2023-05-19T07:55:41.127Z,99649.57
2023-05-19T07:57:28.867Z,99648.80
2023-05-19T07:59:02.422Z,99652.04
2023-05-19T08:00:47.352Z,99652.08
2023-05-19T08:02:11.515Z,99652.70
2023-05-19T08:03:52.275Z,99651.56
2023-05-19T08:05:30.632Z,99651.13
2023-05-19T08:06:57.177Z,99647.94
2023-05-19T08:08:37.600Z,99645.67
2023-05-19T08:10:19.819Z,99643.93
2023-05-19T08:12:04.904Z,99642.92
2023-05-19T08:13:40.639Z,99642.70
2023-05-19T08:15:31.302Z,99633.70
2023-05-19T08:17:13.644Z,99646.58
2023-05-19T08:18:46.950Z,99626.84
2023-05-19T08:20:22.948Z,99636.61
2023-05-19T08:22:09.049Z,99638.48
2023-05-19T08:23:32.892Z,99638.95
2023-05-19T08:25:09.739Z,99640.39
2023-05-19T08:26:41.461Z,99638.21
2023-05-19T08:28:10.726Z,99635.17
2023-05-19T08:29:56.066Z,99636.04
2023-05-19T08:31:32.817Z,99636.17
2023-05-19T08:33:15.435Z,99638.67
2023-05-19T08:34:51.644Z,99637.63
2023-05-19T08:36:36.690Z,99640.17
2023-05-19T08:38:09.894Z,99645.41
2023-05-19T08:39:38.627Z,99640.34
2023-05-19T08:41:14.890Z,99643.30
2023-05-19T08:42:43.712Z,99644.26
2023-05-19T08:44:05.349Z,99641.70
2023-05-19T08:45:29.781Z,99639.00
2023-05-19T08:47:06.780Z,99637.73
2023-05-19T08:48:40.159Z,99637.30
2023-05-19T08:50:25.470Z,99637.35
2023-05-19T08:51:46.912Z,99638.46
2023-05-19T08:53:36.105Z,99639.84
2023-05-19T08:55:00.877Z,99637.73
2023-05-19T08:56:27.423Z,99636.28
2023-05-19T08:57:53.927Z,99638.59
2023-05-19T08:59:27.456Z,99643.04
2023-05-19T09:00:49.402Z,99641.70
2023-05-19T09:02:22.792Z,99640.73
2023-05-19T09:03:59.084Z,99641.46
2023-05-19T09:05:34.795Z,99640.13
2023-05-19T09:07:12.759Z,99640.10
2023-05-19T09:08:47.072Z,99638.02
2023-05-19T09:10:09.125Z,99632.81
2023-05-19T09:11:42.522Z,99643.35
2023-05-19T09:15:20.972Z,99648.77
2023-05-19T09:16:42.933Z,99646.95
2023-05-19T09:18:04.442Z,99644.44
2023-05-19T09:19:26.177Z,99642.92
2023-05-19T09:21:07.248Z,99639.23
2023-05-19T09:22:43.275Z,99636.25
2023-05-19T09:24:05.363Z,99620.31
2023-05-19T09:25:27.312Z,99633.93
2023-05-19T09:27:00.229Z,99633.95
2023-05-19T09:28:31.644Z,99630.02
2023-05-19T09:29:53.905Z,99633.25
2023-05-19T09:31:29.819Z,99634.36
2023-05-19T09:33:01.487Z,99640.88
2023-05-19T09:34:26.838Z,99638.22
2023-05-19T09:36:00.157Z,99642.02
2023-05-19T09:37:22.260Z,99640.48
2023-05-19T09:38:58.357Z,99638.89
2023-05-19T09:40:42.774Z,99644.04
2023-05-19T09:42:16.572Z,99643.81
2023-05-19T09:43:50.183Z,99638.61
2023-05-19T09:45:31.488Z,99639.56
2023-05-19T09:47:04.988Z,99636.24
2023-05-19T09:48:40.750Z,99637.38
2023-05-19T09:50:09.923Z,99636.40
2023-05-19T09:51:34.273Z,99636.96
2023-05-19T09:53:07.550Z,99636.67
2023-05-19T09:54:47.950Z,99633.73
2023-05-19T09:56:29.031Z,99639.80
2023-05-19T09:57:53.444Z,99636.98
2023-05-19T09:59:22.434Z,99636.14
2023-05-19T10:00:58.235Z,99636.30
2023-05-19T10:02:33.620Z,99635.69
2023-05-19T10:04:03.758Z,99632.89
2023-05-19T10:05:29.198Z,99639.23
2023-05-19T10:07:06.063Z,99638.83
2023-05-19T10:08:30.267Z,99639.98
2023-05-19T10:10:04.157Z,99638.08
2023-05-19T10:11:33.112Z,99636.49
2023-05-19T10:12:57.411Z,99640.90
2023-05-19T10:14:29.092Z,99643.90
2023-05-19T10:16:02.707Z,99639.44
2023-05-19T10:17:25.001Z,99639.92
2023-05-19T10:18:57.145Z,99633.33
2023-05-19T10:20:31.038Z,99639.80
2023-05-19T10:21:55.454Z,99639.59
2023-05-19T10:23:28.820Z,99640.17
2023-05-19T10:25:14.762Z,99638.04
2023-05-19T10:26:38.792Z,99640.01
2023-05-19T10:28:13.990Z,99638.64
2023-05-19T10:29:45.438Z,99609.33
2023-05-19T10:31:30.602Z,99634.27
2023-05-19T10:33:08.345Z,99631.74
2023-05-19T10:34:37.340Z,99627.91
2023-05-19T10:35:59.398Z,99617.83
2023-05-19T10:37:35.923Z,99625.99
2023-05-19T10:39:10.427Z,99626.95
2023-05-19T10:40:39.752Z,99625.35
2023-05-19T10:42:21.042Z,99624.46
2023-05-19T10:43:54.983Z,99623.20
2023-05-19T10:45:35.816Z,99621.34
2023-05-19T10:47:14.833Z,99616.76
2023-05-19T10:48:50.334Z,99614.56
2023-05-19T10:50:12.024Z,99616.77
2023-05-19T10:51:45.559Z,99614.00
2023-05-19T10:53:29.760Z,99618.38
2023-05-19T10:54:56.295Z,99621.51
2023-05-19T10:56:42.112Z,99623.85
2023-05-19T10:58:13.696Z,99623.33
2023-05-19T10:59:47.527Z,99621.32
2023-05-19T11:01:22.181Z,99626.27
2023-05-19T11:02:56.126Z,99625.50
2023-05-19T11:04:20.373Z,99630.28
2023-05-19T11:05:53.998Z,99627.78
2023-05-19T11:07:29.752Z,99630.98
2023-05-19T11:09:22.556Z,99629.05
2023-05-19T11:11:11.848Z,99627.28
2023-05-19T11:12:48.441Z,99630.98
2023-05-19T11:14:26.993Z,99629.32
2023-05-19T11:16:02.753Z,99632.08
2023-05-19T11:17:43.806Z,99633.92
2023-05-19T11:19:08.087Z,99637.48
2023-05-19T11:20:32.006Z,99630.56
2023-05-19T11:21:57.516Z,99633.77
2023-05-19T11:23:34.763Z,99631.50
2023-05-19T11:24:59.761Z,99631.79
2023-05-19T11:26:43.894Z,99634.89
2023-05-19T11:28:29.234Z,99629.98
2023-05-19T11:30:14.592Z,99628.41
2023-05-19T11:31:48.582Z,99625.20
2023-05-19T11:33:09.944Z,99626.80
2023-05-19T11:34:47.464Z,99628.02
2023-05-19T11:36:09.306Z,99626.87
2023-05-19T11:37:31.052Z,99631.16
2023-05-19T11:39:13.941Z,99627.81
2023-05-19T11:40:47.198Z,99631.31
2023-05-19T11:42:28.434Z,99631.02
2023-05-19T11:43:54.897Z,99633.38
2023-05-19T11:45:36.345Z,99632.38
2023-05-19T11:47:15.981Z,99636.61
2023-05-19T11:48:40.241Z,99640.57
2023-05-19T11:50:15.562Z,99639.79
2023-05-19T11:51:48.585Z,99644.23
2023-05-19T11:53:20.044Z,99641.91
2023-05-19T11:54:44.106Z,99641.89
2023-05-19T11:56:17.694Z,99639.79
2023-05-19T11:58:02.733Z,99638.11
2023-05-19T11:59:49.556Z,99635.74
2023-05-19T12:01:23.013Z,99635.73
2023-05-19T12:02:52.497Z,99623.05
2023-05-19T12:04:26.027Z,99633.65
2023-05-19T12:05:52.734Z,99635.45
2023-05-19T12:07:25.986Z,99635.71
2023-05-19T12:09:02.121Z,99638.62
2023-05-19T12:10:24.138Z,99640.23
2023-05-19T12:11:45.601Z,99641.16
2023-05-19T12:13:11.047Z,99641.75
2023-05-19T12:14:44.740Z,99641.30
2023-05-19T12:16:18.224Z,99637.55
2023-05-19T12:17:42.291Z,99636.14
2023-05-19T12:19:04.348Z,99638.58
2023-05-19T12:20:28.071Z,99625.74
2023-05-19T12:21:52.459Z,99632.64
2023-05-19T12:23:25.946Z,99630.59
2023-05-19T12:24:58.054Z,99630.61
2023-05-19T12:26:22.284Z,99628.90
2023-05-19T12:27:56.177Z,99631.51
2023-05-19T12:29:32.857Z,99631.39
2023-05-19T12:31:02.381Z,99633.81
2023-05-19T12:32:24.493Z,99636.29
2023-05-19T12:33:48.515Z,99633.41
2023-05-19T12:35:29.176Z,99635.30
2023-05-19T12:37:02.945Z,99617.86
2023-05-19T12:38:49.285Z,99632.85
2023-05-19T12:40:15.759Z,99629.98
2023-05-19T12:41:49.464Z,99628.98
2023-05-19T12:43:23.094Z,99629.31
2023-05-19T12:44:46.806Z,99634.17
2023-05-19T12:46:32.206Z,99632.34
2023-05-19T12:48:18.220Z,99631.23
2023-05-19T12:50:01.704Z,99629.30
2023-05-19T12:51:33.253Z,99636.22
2023-05-19T12:53:07.160Z,99628.64
2023-05-19T12:54:31.537Z,99631.75
2023-05-19T12:56:14.065Z,99629.96
2023-05-19T12:57:48.576Z,99627.50
2023-05-19T12:59:37.105Z,99628.17
2023-05-19T13:01:04.682Z,99627.53
2023-05-19T13:02:26.562Z,99626.77
2023-05-19T13:03:49.054Z,99626.12
2023-05-19T13:05:29.818Z,99625.02
2023-05-19T13:07:03.542Z,99611.39
2023-05-19T13:08:36.957Z,99624.39
2023-05-19T13:10:21.831Z,99626.25
2023-05-19T13:11:43.661Z,99628.18
2023-05-19T13:13:07.968Z,99627.30
2023-05-19T13:14:43.551Z,99624.10
2023-05-19T13:16:08.075Z,99624.11
2023-05-19T13:17:37.326Z,99620.37
2023-05-19T13:19:02.005Z,99625.80
2023-05-19T13:20:24.303Z,99627.95
2023-05-19T13:21:47.758Z,99628.00
2023-05-19T13:23:32.761Z,99626.48
2023-05-19T13:25:02.190Z,99622.95
2023-05-19T13:26:24.263Z,99624.20
2023-05-19T13:27:59.370Z,99623.78
2023-05-19T13:29:29.194Z,99624.34
2023-05-19T13:31:02.765Z,99627.14
2023-05-19T13:32:38.585Z,99624.15
2023-05-19T13:34:05.016Z,99627.40
2023-05-19T13:35:38.979Z,99624.02
2023-05-19T13:37:14.033Z,99624.98
2023-05-19T13:38:43.432Z,99625.48
2023-05-19T13:40:28.638Z,99626.75
2023-05-19T13:42:02.222Z,99619.48
2023-05-19T13:43:38.268Z,99622.84
2023-05-19T13:45:00.290Z,99621.24
2023-05-19T13:46:44.756Z,99618.32
2023-05-19T13:48:21.793Z,99616.34
2023-05-19T13:49:57.916Z,99619.14
2023-05-19T13:51:31.393Z,99619.10
2023-05-19T13:53:12.172Z,99618.95
2023-05-19T13:54:38.926Z,99608.02
2023-05-19T13:56:12.757Z,99619.89
2023-05-19T13:57:50.026Z,99620.24
2023-05-19T14:00:00.274Z,99619.75
2023-05-19T14:01:34.315Z,99617.34
2023-05-19T14:03:20.003Z,99617.66
2023-05-19T14:04:55.926Z,99618.05
2023-05-19T14:06:25.199Z,99616.50
2023-05-19T14:08:11.564Z,99615.52
2023-05-19T14:09:52.591Z,99620.52
2023-05-19T14:11:26.217Z,99620.66
2023-05-19T14:13:29.038Z,99613.30
2023-05-19T14:15:00.691Z,99617.31
2023-05-19T14:16:23.025Z,99617.63
2023-05-19T14:18:08.822Z,99618.32
2023-05-19T14:19:42.296Z,99614.02
2023-05-19T14:21:06.482Z,99621.14
2023-05-19T14:22:28.077Z,99618.70
2023-05-19T14:24:10.797Z,99621.21
2023-05-19T14:25:44.820Z,99617.94
2023-05-19T14:27:16.929Z,99618.12
2023-05-19T14:28:58.295Z,99617.53
2023-05-19T14:30:34.313Z,99617.75
2023-05-19T14:32:17.275Z,99616.58
2023-05-19T14:33:41.101Z,99616.73
2023-05-19T14:35:14.585Z,99618.64
2023-05-19T14:36:50.539Z,99612.52
2023-05-19T14:38:19.692Z,99616.89
2023-05-19T14:39:53.250Z,99618.02
2023-05-19T14:41:29.159Z,99610.98
2023-05-19T14:43:03.101Z,99599.69
2023-05-19T14:44:25.100Z,99613.76
2023-05-19T14:45:46.974Z,99615.56
2023-05-19T14:47:18.507Z,99610.70
2023-05-19T14:48:42.685Z,99613.09
2023-05-19T14:50:24.197Z,99611.11
2023-05-19T14:51:48.449Z,99611.18
2023-05-19T14:53:29.433Z,99610.54
2023-05-19T14:54:52.056Z,99605.69
2023-05-19T14:56:16.322Z,99601.13
2023-05-19T14:57:52.945Z,99613.73
2023-05-19T14:59:25.003Z,99612.96
2023-05-19T15:00:51.717Z,99613.68
2023-05-19T15:02:36.513Z,99620.09
2023-05-19T15:03:58.440Z,99624.85
2023-05-19T15:05:22.811Z,99623.50
2023-05-19T15:08:37.488Z,99628.16
2023-05-19T15:09:59.742Z,99627.19
2023-05-19T15:11:26.201Z,99628.87
2023-05-19T15:12:51.046Z,99630.02
2023-05-19T15:14:24.344Z,99630.85
2023-05-19T15:16:08.217Z,99630.36
2023-05-19T15:17:51.288Z,99626.08
2023-05-19T15:19:24.913Z,99628.73
2023-05-19T15:20:58.646Z,99629.11
2023-05-19T15:22:31.949Z,99625.77
2023-05-19T15:23:53.970Z,99625.83
2023-05-19T15:25:18.202Z,99627.10
2023-05-19T15:26:52.444Z,99625.55
2023-05-19T15:28:16.719Z,99625.17
2023-05-19T15:30:01.857Z,99622.48
2023-05-19T15:31:38.142Z,99623.46
2023-05-19T15:33:11.890Z,99625.00
2023-05-19T15:34:35.865Z,99624.48
2023-05-19T15:36:21.292Z,99621.06
2023-05-19T15:37:57.615Z,99618.02
2023-05-19T15:39:26.751Z,99621.64
2023-05-19T15:41:02.350Z,99616.96
2023-05-19T15:42:31.261Z,99619.60
2023-05-19T15:44:07.413Z,99621.90
2023-05-19T15:45:33.585Z,99620.30
2023-05-19T15:47:07.020Z,99622.61
2023-05-19T15:48:36.236Z,99626.27
2023-05-19T15:50:12.914Z,99622.25
2023-05-19T15:51:35.130Z,99617.19
2023-05-19T15:53:15.425Z,99617.65
2023-05-19T15:54:48.941Z,99615.66
2023-05-19T15:56:22.554Z,99615.86
2023-05-19T15:58:15.906Z,99612.48
2023-05-19T15:59:37.422Z,99611.27
2023-05-19T16:01:02.075Z,99612.13
2023-05-19T16:02:31.189Z,99611.27
2023-05-19T16:04:07.430Z,99609.02
2023-05-19T16:05:42.892Z,99608.31
2023-05-19T16:07:16.927Z,99609.92
2023-05-19T16:09:03.502Z,99598.14
2023-05-19T16:10:30.184Z,99605.65
2023-05-19T16:11:56.725Z,99607.73
2023-05-19T16:13:44.550Z,99609.61
2023-05-19T16:15:25.832Z,99609.99
2023-05-19T16:16:49.805Z,99612.49
2023-05-19T16:18:11.806Z,99607.64
2023-05-19T16:19:48.184Z,99611.77
2023-05-19T16:21:11.981Z,99613.89
2023-05-19T16:22:45.293Z,99611.64
2023-05-19T16:24:30.722Z,99611.02
2023-05-19T16:26:15.829Z,99612.46
2023-05-19T16:27:39.443Z,99611.36
2023-05-19T16:29:13.140Z,99610.86
2023-05-19T16:30:43.941Z,99612.94
2023-05-19T16:32:13.222Z,99612.98
2023-05-19T16:33:49.359Z,99614.46
2023-05-19T16:35:22.810Z,99616.40
2023-05-19T16:36:56.366Z,99616.22
2023-05-19T16:38:29.599Z,99614.39
2023-05-19T16:40:03.522Z,99612.83
2023-05-19T16:41:39.268Z,99600.66
2023-05-19T16:43:01.545Z,99611.31
2023-05-19T16:44:25.705Z,99614.39
2023-05-19T16:45:58.994Z,99603.73
2023-05-19T16:47:32.381Z,99614.42
2023-05-19T16:48:54.796Z,99616.40
2023-05-19T16:50:17.158Z,99616.77
2023-05-19T16:51:52.745Z,99613.16
2023-05-19T16:53:19.071Z,99615.09
2023-05-19T16:54:52.700Z,99616.89
2023-05-19T16:56:14.945Z,99612.63
2023-05-19T16:57:39.286Z,99615.46
2023-05-19T16:59:03.714Z,99613.40
2023-05-19T17:00:27.424Z,99620.81
2023-05-19T17:01:56.976Z,99618.76
2023-05-19T17:03:30.950Z,99619.36
2023-05-19T17:05:00.275Z,99625.68
2023-05-19T17:06:26.822Z,99624.98
2023-05-19T17:07:55.945Z,99629.27
2023-05-19T17:09:30.618Z,99623.45
2023-05-19T17:10:54.730Z,99627.83
2023-05-19T17:12:18.902Z,99626.14
2023-05-19T17:13:48.633Z,99628.40
2023-05-19T17:15:22.069Z,99630.66
2023-05-19T17:16:46.689Z,99627.77
2023-05-19T17:18:20.744Z,99626.25
2023-05-19T17:19:42.213Z,99625.69
2023-05-19T17:21:06.483Z,99625.02
2023-05-19T17:22:30.137Z,99626.67
2023-05-19T17:23:52.628Z,99622.70
2023-05-19T17:25:16.716Z,99626.48
2023-05-19T17:26:40.699Z,99621.67
2023-05-19T17:28:14.205Z,99623.21
2023-05-19T17:29:37.950Z,99614.54
2023-05-19T17:30:59.904Z,99624.37
2023-05-19T17:32:28.221Z,99621.46
2023-05-19T17:33:50.474Z,99624.17
2023-05-19T17:35:22.082Z,99622.50
2023-05-19T17:36:55.375Z,99622.98
2023-05-19T17:38:40.589Z,99626.06
2023-05-19T17:40:14.276Z,99622.77
2023-05-19T17:41:35.912Z,99626.20
2023-05-19T17:43:09.904Z,99624.94
2023-05-19T17:44:43.260Z,99624.92
2023-05-19T17:46:17.409Z,99625.59
2023-05-19T17:47:53.497Z,99620.67
2023-05-19T17:49:38.439Z,99618.94
2023-05-19T17:51:13.068Z,99623.35
2023-05-19T17:52:46.522Z,99623.94
2023-05-19T17:54:19.993Z,99618.43
2023-05-19T17:55:48.985Z,99622.60
2023-05-19T17:57:13.793Z,99625.48
2023-05-19T17:58:38.658Z,99627.31
2023-05-19T18:00:12.646Z,99627.21
2023-05-19T18:01:46.332Z,99626.01
2023-05-19T18:03:08.157Z,99627.25
2023-05-19T18:04:49.763Z,99625.29
2023-05-19T18:06:23.400Z,99623.10
2023-05-19T18:07:47.581Z,99623.86
2023-05-19T18:09:09.765Z,99622.98
2023-05-19T18:10:32.002Z,99624.01
2023-05-19T18:12:03.785Z,99621.23
2023-05-19T18:13:33.075Z,99623.16
2023-05-19T18:15:04.646Z,99626.86
2023-05-19T18:16:27.331Z,99628.17
2023-05-19T18:18:16.939Z,99618.45
2023-05-19T18:19:39.095Z,99629.05
2023-05-19T18:21:15.066Z,99633.52
2023-05-19T18:22:36.680Z,99632.85
2023-05-19T18:24:03.419Z,99633.11
2023-05-19T18:25:37.287Z,99635.86
2023-05-19T18:26:59.554Z,99636.02
2023-05-19T18:28:35.099Z,99639.08
2023-05-19T18:29:59.294Z,99639.98
2023-05-19T18:31:21.953Z,99640.15